sensor_id;sensor_type;location;lat;lon;timestamp;P1;durP1;ratioP1;P2;durP2;ratioP2
76053;SDS011;64752;48.870;9.082;2024-03-02T00:01:50;24.10;;;15.45;;
76053;SDS011;64752;48.870;9.082;2024-03-02T00:04:15;25.23;;;16.83;;
76053;SDS011;64752;48.870;9.082;2024-03-02T00:06:42;24.25;;;15.88;;
76053;SDS011;64752;48.870;9.082;2024-03-02T00:09:10;17.65;;;12.05;;
76053;SDS011;64752;48.870;9.082;2024-03-02T00:14:03;18.13;;;12.25;;
76053;SDS011;64752;48.870;9.082;2024-03-02T00:16:31;19.45;;;12.57;;
76053;SDS011;64752;48.870;9.082;2024-03-02T00:19:03;15.82;;;11.23;;
76053;SDS011;64752;48.870;9.082;2024-03-02T00:21:31;16.02;;;11.90;;
76053;SDS011;64752;48.870;9.082;2024-03-02T00:23:57;15.68;;;11.02;;
76053;SDS011;64752;48.870;9.082;2024-03-02T00:26:23;17.95;;;11.95;;
76053;SDS011;64752;48.870;9.082;2024-03-02T00:28:48;15.40;;;11.05;;
76053;SDS011;64752;48.870;9.082;2024-03-02T00:36:16;14.23;;;10.75;;
76053;SDS011;64752;48.870;9.082;2024-03-02T00:38:47;16.92;;;11.73;;
76053;SDS011;64752;48.870;9.082;2024-03-02T00:41:32;16.92;;;11.65;;
76053;SDS011;64752;48.870;9.082;2024-03-02T00:43:58;20.45;;;13.02;;
76053;SDS011;64752;48.870;9.082;2024-03-02T00:46:26;15.65;;;11.75;;
76053;SDS011;64752;48.870;9.082;2024-03-02T00:51:22;17.48;;;11.82;;
76053;SDS011;64752;48.870;9.082;2024-03-02T00:53:49;14.85;;;10.93;;
76053;SDS011;64752;48.870;9.082;2024-03-02T00:56:15;13.93;;;10.18;;
76053;SDS011;64752;48.870;9.082;2024-03-02T00:58:41;14.55;;;10.75;;
76053;SDS011;64752;48.870;9.082;2024-03-02T01:01:07;15.80;;;10.82;;
76053;SDS011;64752;48.870;9.082;2024-03-02T01:03:33;14.70;;;10.45;;
76053;SDS011;64752;48.870;9.082;2024-03-02T01:05:59;15.03;;;11.33;;
76053;SDS011;64752;48.870;9.082;2024-03-02T01:08:24;14.90;;;10.80;;
76053;SDS011;64752;48.870;9.082;2024-03-02T01:10:50;16.23;;;11.03;;
76053;SDS011;64752;48.870;9.082;2024-03-02T01:13:16;16.85;;;11.38;;
76053;SDS011;64752;48.870;9.082;2024-03-02T01:15:41;15.80;;;10.77;;
76053;SDS011;64752;48.870;9.082;2024-03-02T01:18:06;16.50;;;11.75;;
76053;SDS011;64752;48.870;9.082;2024-03-02T01:20:32;17.00;;;11.52;;
76053;SDS011;64752;48.870;9.082;2024-03-02T01:22:58;19.35;;;11.80;;
76053;SDS011;64752;48.870;9.082;2024-03-02T01:25:23;19.63;;;12.95;;
76053;SDS011;64752;48.870;9.082;2024-03-02T01:27:49;16.43;;;12.10;;
76053;SDS011;64752;48.870;9.082;2024-03-02T01:30:15;17.35;;;12.73;;
76053;SDS011;64752;48.870;9.082;2024-03-02T01:32:41;19.83;;;13.73;;
76053;SDS011;64752;48.870;9.082;2024-03-02T01:35:06;20.83;;;13.48;;
76053;SDS011;64752;48.870;9.082;2024-03-02T01:37:32;18.63;;;13.00;;
76053;SDS011;64752;48.870;9.082;2024-03-02T01:39:58;19.52;;;13.60;;
76053;SDS011;64752;48.870;9.082;2024-03-02T01:42:23;20.33;;;14.20;;
76053;SDS011;64752;48.870;9.082;2024-03-02T01:44:48;21.45;;;14.10;;
76053;SDS011;64752;48.870;9.082;2024-03-02T01:47:14;21.13;;;14.30;;
76053;SDS011;64752;48.870;9.082;2024-03-02T01:49:39;21.17;;;14.73;;
76053;SDS011;64752;48.870;9.082;2024-03-02T01:52:06;25.15;;;15.52;;
76053;SDS011;64752;48.870;9.082;2024-03-02T01:54:31;22.80;;;15.60;;
76053;SDS011;64752;48.870;9.082;2024-03-02T01:56:57;23.02;;;15.55;;
76053;SDS011;64752;48.870;9.082;2024-03-02T01:59:23;24.55;;;15.70;;
76053;SDS011;64752;48.870;9.082;2024-03-02T02:01:48;22.92;;;15.30;;
76053;SDS011;64752;48.870;9.082;2024-03-02T02:04:14;23.58;;;15.38;;
76053;SDS011;64752;48.870;9.082;2024-03-02T02:06:39;26.45;;;16.13;;
76053;SDS011;64752;48.870;9.082;2024-03-02T02:09:05;25.40;;;17.05;;
76053;SDS011;64752;48.870;9.082;2024-03-02T02:11:33;26.90;;;16.77;;
76053;SDS011;64752;48.870;9.082;2024-03-02T02:13:58;25.17;;;15.88;;
76053;SDS011;64752;48.870;9.082;2024-03-02T02:16:23;25.50;;;17.20;;
76053;SDS011;64752;48.870;9.082;2024-03-02T02:18:49;30.55;;;18.75;;
76053;SDS011;64752;48.870;9.082;2024-03-02T02:21:14;27.70;;;18.83;;
76053;SDS011;64752;48.870;9.082;2024-03-02T02:23:39;26.40;;;18.20;;
76053;SDS011;64752;48.870;9.082;2024-03-02T02:26:05;28.02;;;19.27;;
76053;SDS011;64752;48.870;9.082;2024-03-02T02:28:30;30.90;;;19.75;;
76053;SDS011;64752;48.870;9.082;2024-03-02T02:30:56;32.53;;;20.65;;
76053;SDS011;64752;48.870;9.082;2024-03-02T02:33:21;31.17;;;20.77;;
76053;SDS011;64752;48.870;9.082;2024-03-02T02:35:47;35.03;;;21.83;;
76053;SDS011;64752;48.870;9.082;2024-03-02T02:38:12;38.63;;;23.00;;
76053;SDS011;64752;48.870;9.082;2024-03-02T02:40:37;33.10;;;20.65;;
76053;SDS011;64752;48.870;9.082;2024-03-02T02:43:03;31.10;;;19.60;;
76053;SDS011;64752;48.870;9.082;2024-03-02T02:45:28;29.38;;;19.35;;
76053;SDS011;64752;48.870;9.082;2024-03-02T02:47:54;35.47;;;20.13;;
76053;SDS011;64752;48.870;9.082;2024-03-02T02:50:19;33.95;;;20.42;;
76053;SDS011;64752;48.870;9.082;2024-03-02T02:52:45;34.03;;;20.83;;
76053;SDS011;64752;48.870;9.082;2024-03-02T02:55:11;32.38;;;20.20;;
76053;SDS011;64752;48.870;9.082;2024-03-02T02:57:39;31.27;;;19.88;;
76053;SDS011;64752;48.870;9.082;2024-03-02T03:00:06;31.15;;;19.70;;
76053;SDS011;64752;48.870;9.082;2024-03-02T03:02:38;27.75;;;18.13;;
76053;SDS011;64752;48.870;9.082;2024-03-02T03:05:05;34.08;;;20.35;;
76053;SDS011;64752;48.870;9.082;2024-03-02T03:07:31;31.75;;;20.45;;
76053;SDS011;64752;48.870;9.082;2024-03-02T03:09:57;36.92;;;21.88;;
76053;SDS011;64752;48.870;9.082;2024-03-02T03:12:23;30.42;;;20.30;;
76053;SDS011;64752;48.870;9.082;2024-03-02T03:14:48;32.55;;;19.83;;
76053;SDS011;64752;48.870;9.082;2024-03-02T03:17:13;32.33;;;20.05;;
76053;SDS011;64752;48.870;9.082;2024-03-02T03:19:39;33.55;;;20.08;;
76053;SDS011;64752;48.870;9.082;2024-03-02T03:22:04;34.42;;;21.55;;
76053;SDS011;64752;48.870;9.082;2024-03-02T03:24:29;31.73;;;19.50;;
76053;SDS011;64752;48.870;9.082;2024-03-02T03:26:55;28.20;;;19.67;;
76053;SDS011;64752;48.870;9.082;2024-03-02T03:29:20;32.33;;;19.52;;
76053;SDS011;64752;48.870;9.082;2024-03-02T03:31:45;32.97;;;21.15;;
76053;SDS011;64752;48.870;9.082;2024-03-02T03:34:11;34.20;;;21.15;;
76053;SDS011;64752;48.870;9.082;2024-03-02T03:36:40;35.65;;;21.92;;
76053;SDS011;64752;48.870;9.082;2024-03-02T03:39:06;37.15;;;20.58;;
76053;SDS011;64752;48.870;9.082;2024-03-02T03:41:31;40.70;;;21.88;;
76053;SDS011;64752;48.870;9.082;2024-03-02T03:43:57;33.78;;;22.38;;
76053;SDS011;64752;48.870;9.082;2024-03-02T03:46:22;35.08;;;22.42;;
76053;SDS011;64752;48.870;9.082;2024-03-02T03:48:47;39.63;;;22.73;;
76053;SDS011;64752;48.870;9.082;2024-03-02T03:51:13;38.40;;;21.95;;
76053;SDS011;64752;48.870;9.082;2024-03-02T03:53:38;37.70;;;22.25;;
76053;SDS011;64752;48.870;9.082;2024-03-02T03:56:04;36.60;;;22.42;;
76053;SDS011;64752;48.870;9.082;2024-03-02T03:58:29;36.08;;;22.02;;
76053;SDS011;64752;48.870;9.082;2024-03-02T04:00:55;37.95;;;22.42;;
76053;SDS011;64752;48.870;9.082;2024-03-02T04:03:20;36.00;;;21.45;;
76053;SDS011;64752;48.870;9.082;2024-03-02T04:05:45;41.20;;;23.40;;
76053;SDS011;64752;48.870;9.082;2024-03-02T04:08:10;42.95;;;25.02;;
76053;SDS011;64752;48.870;9.082;2024-03-02T04:10:36;42.70;;;23.83;;
76053;SDS011;64752;48.870;9.082;2024-03-02T04:13:02;36.90;;;22.10;;
76053;SDS011;64752;48.870;9.082;2024-03-02T04:15:27;37.38;;;21.75;;
76053;SDS011;64752;48.870;9.082;2024-03-02T04:17:53;38.60;;;23.13;;
76053;SDS011;64752;48.870;9.082;2024-03-02T04:20:18;38.42;;;22.80;;
76053;SDS011;64752;48.870;9.082;2024-03-02T04:22:43;37.03;;;23.52;;
76053;SDS011;64752;48.870;9.082;2024-03-02T04:25:08;33.67;;;22.05;;
76053;SDS011;64752;48.870;9.082;2024-03-02T04:27:34;39.47;;;23.50;;
76053;SDS011;64752;48.870;9.082;2024-03-02T04:30:00;35.53;;;21.60;;
76053;SDS011;64752;48.870;9.082;2024-03-02T04:32:28;39.97;;;21.58;;
76053;SDS011;64752;48.870;9.082;2024-03-02T04:34:54;41.42;;;23.63;;
76053;SDS011;64752;48.870;9.082;2024-03-02T04:37:19;38.72;;;22.45;;
76053;SDS011;64752;48.870;9.082;2024-03-02T04:39:45;34.80;;;21.55;;
76053;SDS011;64752;48.870;9.082;2024-03-02T04:42:10;32.45;;;21.65;;
76053;SDS011;64752;48.870;9.082;2024-03-02T04:44:35;34.75;;;21.52;;
76053;SDS011;64752;48.870;9.082;2024-03-02T04:49:28;34.78;;;20.73;;
76053;SDS011;64752;48.870;9.082;2024-03-02T04:51:53;36.60;;;21.00;;
76053;SDS011;64752;48.870;9.082;2024-03-02T04:54:18;34.92;;;21.13;;
76053;SDS011;64752;48.870;9.082;2024-03-02T04:56:44;34.03;;;20.30;;
76053;SDS011;64752;48.870;9.082;2024-03-02T04:59:14;37.05;;;22.00;;
76053;SDS011;64752;48.870;9.082;2024-03-02T05:01:39;31.05;;;20.90;;
76053;SDS011;64752;48.870;9.082;2024-03-02T05:04:04;31.92;;;20.60;;
76053;SDS011;64752;48.870;9.082;2024-03-02T05:06:30;33.03;;;20.98;;
76053;SDS011;64752;48.870;9.082;2024-03-02T05:08:55;35.85;;;20.73;;
76053;SDS011;64752;48.870;9.082;2024-03-02T05:11:21;38.30;;;23.85;;
76053;SDS011;64752;48.870;9.082;2024-03-02T05:14:05;30.95;;;20.55;;
76053;SDS011;64752;48.870;9.082;2024-03-02T05:16:34;39.40;;;21.90;;
76053;SDS011;64752;48.870;9.082;2024-03-02T05:19:03;37.53;;;21.75;;
76053;SDS011;64752;48.870;9.082;2024-03-02T05:21:31;34.97;;;21.52;;
76053;SDS011;64752;48.870;9.082;2024-03-02T05:23:56;33.83;;;20.10;;
76053;SDS011;64752;48.870;9.082;2024-03-02T05:26:22;37.72;;;21.90;;
76053;SDS011;64752;48.870;9.082;2024-03-02T05:28:47;36.13;;;23.27;;
76053;SDS011;64752;48.870;9.082;2024-03-02T05:31:14;36.15;;;22.83;;
76053;SDS011;64752;48.870;9.082;2024-03-02T05:33:40;41.67;;;23.30;;
76053;SDS011;64752;48.870;9.082;2024-03-02T05:36:06;37.83;;;22.92;;
76053;SDS011;64752;48.870;9.082;2024-03-02T05:38:32;40.70;;;23.73;;
76053;SDS011;64752;48.870;9.082;2024-03-02T05:41:02;40.92;;;23.25;;
76053;SDS011;64752;48.870;9.082;2024-03-02T05:43:30;41.90;;;24.23;;
76053;SDS011;64752;48.870;9.082;2024-03-02T05:45:55;44.30;;;24.70;;
76053;SDS011;64752;48.870;9.082;2024-03-02T05:48:21;41.72;;;24.05;;
76053;SDS011;64752;48.870;9.082;2024-03-02T05:50:46;44.85;;;22.33;;
76053;SDS011;64752;48.870;9.082;2024-03-02T05:53:11;39.70;;;23.65;;
76053;SDS011;64752;48.870;9.082;2024-03-02T05:55:37;37.85;;;22.70;;
76053;SDS011;64752;48.870;9.082;2024-03-02T05:58:02;39.20;;;21.92;;
76053;SDS011;64752;48.870;9.082;2024-03-02T06:00:30;36.17;;;23.30;;
76053;SDS011;64752;48.870;9.082;2024-03-02T06:02:56;36.33;;;20.58;;
76053;SDS011;64752;48.870;9.082;2024-03-02T06:05:21;35.90;;;20.10;;
76053;SDS011;64752;48.870;9.082;2024-03-02T06:07:47;32.95;;;20.08;;
76053;SDS011;64752;48.870;9.082;2024-03-02T06:10:12;35.38;;;20.13;;
76053;SDS011;64752;48.870;9.082;2024-03-02T06:12:37;32.17;;;21.13;;
76053;SDS011;64752;48.870;9.082;2024-03-02T06:15:03;36.28;;;20.58;;
76053;SDS011;64752;48.870;9.082;2024-03-02T06:17:29;33.17;;;20.00;;
76053;SDS011;64752;48.870;9.082;2024-03-02T06:19:54;33.15;;;19.77;;
76053;SDS011;64752;48.870;9.082;2024-03-02T06:22:20;28.35;;;18.92;;
76053;SDS011;64752;48.870;9.082;2024-03-02T06:24:46;31.70;;;20.20;;
76053;SDS011;64752;48.870;9.082;2024-03-02T06:27:11;33.15;;;18.98;;
76053;SDS011;64752;48.870;9.082;2024-03-02T06:29:37;29.95;;;17.75;;
76053;SDS011;64752;48.870;9.082;2024-03-02T06:32:02;28.48;;;18.15;;
76053;SDS011;64752;48.870;9.082;2024-03-02T06:34:28;28.75;;;18.38;;
76053;SDS011;64752;48.870;9.082;2024-03-02T06:36:53;26.45;;;18.02;;
76053;SDS011;64752;48.870;9.082;2024-03-02T06:39:19;27.35;;;17.70;;
76053;SDS011;64752;48.870;9.082;2024-03-02T06:41:44;25.27;;;17.08;;
76053;SDS011;64752;48.870;9.082;2024-03-02T06:44:12;23.30;;;16.45;;
76053;SDS011;64752;48.870;9.082;2024-03-02T06:46:37;25.70;;;16.40;;
76053;SDS011;64752;48.870;9.082;2024-03-02T06:49:03;22.33;;;16.05;;
76053;SDS011;64752;48.870;9.082;2024-03-02T06:51:29;24.75;;;15.88;;
76053;SDS011;64752;48.870;9.082;2024-03-02T06:53:54;23.65;;;14.90;;
76053;SDS011;64752;48.870;9.082;2024-03-02T06:56:22;24.38;;;15.93;;
76053;SDS011;64752;48.870;9.082;2024-03-02T06:58:48;24.60;;;14.80;;
76053;SDS011;64752;48.870;9.082;2024-03-02T07:01:13;21.27;;;14.20;;
76053;SDS011;64752;48.870;9.082;2024-03-02T07:03:39;25.42;;;14.85;;
76053;SDS011;64752;48.870;9.082;2024-03-02T07:06:04;18.88;;;13.32;;
76053;SDS011;64752;48.870;9.082;2024-03-02T07:08:30;20.08;;;13.95;;
76053;SDS011;64752;48.870;9.082;2024-03-02T07:10:55;18.23;;;13.43;;
76053;SDS011;64752;48.870;9.082;2024-03-02T07:13:21;19.02;;;13.75;;
76053;SDS011;64752;48.870;9.082;2024-03-02T07:15:47;18.73;;;11.73;;
76053;SDS011;64752;48.870;9.082;2024-03-02T07:18:44;16.83;;;12.55;;
76053;SDS011;64752;48.870;9.082;2024-03-02T07:21:16;19.90;;;14.60;;
76053;SDS011;64752;48.870;9.082;2024-03-02T07:23:41;22.42;;;15.63;;
76053;SDS011;64752;48.870;9.082;2024-03-02T07:26:07;15.57;;;11.45;;
76053;SDS011;64752;48.870;9.082;2024-03-02T07:28:32;14.95;;;10.35;;
76053;SDS011;64752;48.870;9.082;2024-03-02T07:31:01;13.20;;;10.55;;
76053;SDS011;64752;48.870;9.082;2024-03-02T07:33:29;14.55;;;10.27;;
76053;SDS011;64752;48.870;9.082;2024-03-02T07:35:55;13.75;;;10.25;;
76053;SDS011;64752;48.870;9.082;2024-03-02T07:38:21;17.60;;;12.00;;
76053;SDS011;64752;48.870;9.082;2024-03-02T07:40:47;16.17;;;11.25;;
76053;SDS011;64752;48.870;9.082;2024-03-02T07:43:16;15.35;;;10.82;;
76053;SDS011;64752;48.870;9.082;2024-03-02T07:45:42;15.75;;;11.52;;
76053;SDS011;64752;48.870;9.082;2024-03-02T07:48:08;16.52;;;11.07;;
76053;SDS011;64752;48.870;9.082;2024-03-02T07:50:34;17.60;;;12.43;;
76053;SDS011;64752;48.870;9.082;2024-03-02T07:53:00;15.98;;;11.95;;
76053;SDS011;64752;48.870;9.082;2024-03-02T07:55:26;16.52;;;11.82;;
76053;SDS011;64752;48.870;9.082;2024-03-02T07:57:51;14.32;;;10.55;;
76053;SDS011;64752;48.870;9.082;2024-03-02T08:00:17;17.38;;;11.82;;
76053;SDS011;64752;48.870;9.082;2024-03-02T08:02:42;14.38;;;10.23;;
76053;SDS011;64752;48.870;9.082;2024-03-02T08:05:08;12.65;;;9.57;;
76053;SDS011;64752;48.870;9.082;2024-03-02T08:07:34;13.63;;;9.63;;
76053;SDS011;64752;48.870;9.082;2024-03-02T08:09:59;14.98;;;9.95;;
76053;SDS011;64752;48.870;9.082;2024-03-02T08:12:25;13.95;;;9.45;;
76053;SDS011;64752;48.870;9.082;2024-03-02T08:14:50;14.35;;;10.32;;
76053;SDS011;64752;48.870;9.082;2024-03-02T08:17:16;12.50;;;8.88;;
76053;SDS011;64752;48.870;9.082;2024-03-02T08:19:41;13.52;;;8.38;;
76053;SDS011;64752;48.870;9.082;2024-03-02T08:22:07;15.65;;;10.00;;
76053;SDS011;64752;48.870;9.082;2024-03-02T08:24:33;10.48;;;7.82;;
76053;SDS011;64752;48.870;9.082;2024-03-02T08:26:59;11.38;;;7.90;;
76053;SDS011;64752;48.870;9.082;2024-03-02T08:29:25;11.53;;;7.60;;
76053;SDS011;64752;48.870;9.082;2024-03-02T08:31:50;11.95;;;7.35;;
76053;SDS011;64752;48.870;9.082;2024-03-02T08:34:15;10.70;;;7.35;;
76053;SDS011;64752;48.870;9.082;2024-03-02T08:36:41;9.73;;;6.93;;
76053;SDS011;64752;48.870;9.082;2024-03-02T08:39:07;11.20;;;6.53;;
76053;SDS011;64752;48.870;9.082;2024-03-02T08:41:40;8.13;;;5.90;;
76053;SDS011;64752;48.870;9.082;2024-03-02T08:44:07;7.75;;;5.80;;
76053;SDS011;64752;48.870;9.082;2024-03-02T08:46:32;8.37;;;5.70;;
76053;SDS011;64752;48.870;9.082;2024-03-02T08:48:58;7.73;;;5.80;;
76053;SDS011;64752;48.870;9.082;2024-03-02T08:51:23;8.33;;;5.63;;
76053;SDS011;64752;48.870;9.082;2024-03-02T08:53:50;6.50;;;4.90;;
76053;SDS011;64752;48.870;9.082;2024-03-02T08:56:16;7.13;;;5.30;;
76053;SDS011;64752;48.870;9.082;2024-03-02T08:58:41;7.90;;;5.50;;
76053;SDS011;64752;48.870;9.082;2024-03-02T09:01:08;13.68;;;7.65;;
76053;SDS011;64752;48.870;9.082;2024-03-02T09:03:34;10.23;;;6.87;;
76053;SDS011;64752;48.870;9.082;2024-03-02T09:06:00;11.87;;;6.20;;
76053;SDS011;64752;48.870;9.082;2024-03-02T09:08:25;9.07;;;6.13;;
76053;SDS011;64752;48.870;9.082;2024-03-02T09:10:51;7.33;;;5.63;;
76053;SDS011;64752;48.870;9.082;2024-03-02T09:13:17;6.33;;;4.73;;
76053;SDS011;64752;48.870;9.082;2024-03-02T09:15:42;6.53;;;4.53;;
76053;SDS011;64752;48.870;9.082;2024-03-02T09:18:09;7.00;;;4.68;;
76053;SDS011;64752;48.870;9.082;2024-03-02T09:20:34;5.87;;;4.27;;
76053;SDS011;64752;48.870;9.082;2024-03-02T09:23:00;6.67;;;4.60;;
76053;SDS011;64752;48.870;9.082;2024-03-02T09:25:25;8.63;;;5.27;;
76053;SDS011;64752;48.870;9.082;2024-03-02T09:27:51;6.63;;;4.33;;
76053;SDS011;64752;48.870;9.082;2024-03-02T09:30:16;7.80;;;4.77;;
76053;SDS011;64752;48.870;9.082;2024-03-02T09:32:41;6.23;;;4.50;;
76053;SDS011;64752;48.870;9.082;2024-03-02T09:35:07;7.97;;;4.50;;
76053;SDS011;64752;48.870;9.082;2024-03-02T09:37:33;5.90;;;3.95;;
76053;SDS011;64752;48.870;9.082;2024-03-02T09:39:59;5.30;;;3.63;;
76053;SDS011;64752;48.870;9.082;2024-03-02T09:42:24;5.17;;;3.57;;
76053;SDS011;64752;48.870;9.082;2024-03-02T09:44:51;4.63;;;3.40;;
76053;SDS011;64752;48.870;9.082;2024-03-02T09:47:17;3.65;;;3.08;;
76053;SDS011;64752;48.870;9.082;2024-03-02T09:49:42;3.90;;;2.83;;
76053;SDS011;64752;48.870;9.082;2024-03-02T09:52:08;4.78;;;3.42;;
76053;SDS011;64752;48.870;9.082;2024-03-02T09:54:35;6.82;;;3.20;;
76053;SDS011;64752;48.870;9.082;2024-03-02T09:57:01;4.33;;;3.10;;
76053;SDS011;64752;48.870;9.082;2024-03-02T10:01:57;4.75;;;3.78;;
76053;SDS011;64752;48.870;9.082;2024-03-02T10:04:32;6.07;;;3.90;;
76053;SDS011;64752;48.870;9.082;2024-03-02T10:09:38;5.13;;;3.30;;
76053;SDS011;64752;48.870;9.082;2024-03-02T10:12:05;4.68;;;3.10;;
76053;SDS011;64752;48.870;9.082;2024-03-02T10:14:31;4.50;;;3.33;;
76053;SDS011;64752;48.870;9.082;2024-03-02T10:17:01;3.90;;;2.77;;
76053;SDS011;64752;48.870;9.082;2024-03-02T10:19:31;3.63;;;2.65;;
76053;SDS011;64752;48.870;9.082;2024-03-02T10:21:58;15.55;;;3.25;;
76053;SDS011;64752;48.870;9.082;2024-03-02T10:24:24;5.35;;;3.22;;
76053;SDS011;64752;48.870;9.082;2024-03-02T10:26:50;4.82;;;2.50;;
76053;SDS011;64752;48.870;9.082;2024-03-02T10:29:16;5.10;;;3.03;;
76053;SDS011;64752;48.870;9.082;2024-03-02T10:31:43;3.78;;;2.63;;
76053;SDS011;64752;48.870;9.082;2024-03-02T10:34:10;6.20;;;2.50;;
76053;SDS011;64752;48.870;9.082;2024-03-02T10:36:36;3.20;;;2.40;;
76053;SDS011;64752;48.870;9.082;2024-03-02T10:39:05;4.03;;;2.50;;
76053;SDS011;64752;48.870;9.082;2024-03-02T10:41:32;4.32;;;3.03;;
76053;SDS011;64752;48.870;9.082;2024-03-02T10:44:06;4.10;;;2.63;;
76053;SDS011;64752;48.870;9.082;2024-03-02T10:46:34;3.53;;;2.58;;
76053;SDS011;64752;48.870;9.082;2024-03-02T10:49:01;3.15;;;2.50;;
76053;SDS011;64752;48.870;9.082;2024-03-02T10:51:29;4.55;;;2.95;;
76053;SDS011;64752;48.870;9.082;2024-03-02T10:53:59;3.58;;;2.70;;
76053;SDS011;64752;48.870;9.082;2024-03-02T11:01:59;3.30;;;2.45;;
76053;SDS011;64752;48.870;9.082;2024-03-02T11:04:26;3.35;;;2.40;;
76053;SDS011;64752;48.870;9.082;2024-03-02T11:06:54;3.80;;;2.60;;
76053;SDS011;64752;48.870;9.082;2024-03-02T11:09:25;5.07;;;2.53;;
76053;SDS011;64752;48.870;9.082;2024-03-02T11:15:01;3.60;;;2.17;;
76053;SDS011;64752;48.870;9.082;2024-03-02T11:17:33;3.38;;;2.05;;
76053;SDS011;64752;48.870;9.082;2024-03-02T11:19:58;5.10;;;2.90;;
76053;SDS011;64752;48.870;9.082;2024-03-02T11:22:24;5.32;;;2.80;;
76053;SDS011;64752;48.870;9.082;2024-03-02T11:24:51;4.40;;;3.03;;
76053;SDS011;64752;48.870;9.082;2024-03-02T11:33:05;4.63;;;3.00;;
76053;SDS011;64752;48.870;9.082;2024-03-02T11:35:32;3.28;;;2.80;;
76053;SDS011;64752;48.870;9.082;2024-03-02T11:37:58;5.20;;;3.15;;
76053;SDS011;64752;48.870;9.082;2024-03-02T11:40:27;5.10;;;2.90;;
76053;SDS011;64752;48.870;9.082;2024-03-02T11:42:53;3.90;;;3.00;;
76053;SDS011;64752;48.870;9.082;2024-03-02T11:45:22;3.43;;;2.77;;
76053;SDS011;64752;48.870;9.082;2024-03-02T11:47:58;3.40;;;2.72;;
76053;SDS011;64752;48.870;9.082;2024-03-02T11:50:31;4.43;;;2.80;;
76053;SDS011;64752;48.870;9.082;2024-03-02T11:52:59;7.32;;;2.67;;
76053;SDS011;64752;48.870;9.082;2024-03-02T11:55:25;3.45;;;2.50;;
76053;SDS011;64752;48.870;9.082;2024-03-02T11:57:54;2.97;;;2.55;;
76053;SDS011;64752;48.870;9.082;2024-03-02T12:00:20;3.38;;;2.33;;
76053;SDS011;64752;48.870;9.082;2024-03-02T12:02:46;2.67;;;1.93;;
76053;SDS011;64752;48.870;9.082;2024-03-02T12:05:14;2.30;;;1.95;;
76053;SDS011;64752;48.870;9.082;2024-03-02T12:07:42;3.92;;;2.00;;
76053;SDS011;64752;48.870;9.082;2024-03-02T12:10:08;3.15;;;2.10;;
76053;SDS011;64752;48.870;9.082;2024-03-02T12:12:33;1.97;;;1.30;;
76053;SDS011;64752;48.870;9.082;2024-03-02T12:14:58;1.20;;;1.10;;
76053;SDS011;64752;48.870;9.082;2024-03-02T12:17:25;1.88;;;1.00;;
76053;SDS011;64752;48.870;9.082;2024-03-02T12:19:51;1.83;;;1.20;;
76053;SDS011;64752;48.870;9.082;2024-03-02T12:22:17;1.10;;;0.90;;
76053;SDS011;64752;48.870;9.082;2024-03-02T12:24:44;1.73;;;1.00;;
76053;SDS011;64752;48.870;9.082;2024-03-02T12:27:13;1.15;;;0.95;;
76053;SDS011;64752;48.870;9.082;2024-03-02T12:29:40;1.65;;;1.10;;
76053;SDS011;64752;48.870;9.082;2024-03-02T12:32:06;1.60;;;1.00;;
76053;SDS011;64752;48.870;9.082;2024-03-02T12:34:31;1.77;;;1.00;;
76053;SDS011;64752;48.870;9.082;2024-03-02T12:36:57;1.50;;;0.83;;
76053;SDS011;64752;48.870;9.082;2024-03-02T12:39:23;1.23;;;0.93;;
76053;SDS011;64752;48.870;9.082;2024-03-02T12:41:49;0.73;;;0.50;;
76053;SDS011;64752;48.870;9.082;2024-03-02T12:44:19;1.38;;;0.68;;
76053;SDS011;64752;48.870;9.082;2024-03-02T12:46:44;0.80;;;0.70;;
76053;SDS011;64752;48.870;9.082;2024-03-02T12:49:14;0.68;;;0.60;;
76053;SDS011;64752;48.870;9.082;2024-03-02T12:51:45;2.05;;;1.20;;
76053;SDS011;64752;48.870;9.082;2024-03-02T12:54:16;1.88;;;0.90;;
76053;SDS011;64752;48.870;9.082;2024-03-02T12:56:42;1.25;;;0.95;;
76053;SDS011;64752;48.870;9.082;2024-03-02T12:59:17;1.15;;;0.70;;
76053;SDS011;64752;48.870;9.082;2024-03-02T13:01:54;1.05;;;0.70;;
76053;SDS011;64752;48.870;9.082;2024-03-02T13:04:25;2.72;;;0.95;;
76053;SDS011;64752;48.870;9.082;2024-03-02T13:06:52;2.13;;;1.02;;
76053;SDS011;64752;48.870;9.082;2024-03-02T13:09:18;0.90;;;0.77;;
76053;SDS011;64752;48.870;9.082;2024-03-02T13:11:44;0.98;;;0.88;;
76053;SDS011;64752;48.870;9.082;2024-03-02T13:14:12;2.07;;;1.00;;
76053;SDS011;64752;48.870;9.082;2024-03-02T13:16:41;1.30;;;1.20;;
76053;SDS011;64752;48.870;9.082;2024-03-02T13:19:17;0.82;;;0.80;;
76053;SDS011;64752;48.870;9.082;2024-03-02T13:21:44;1.05;;;0.63;;
76053;SDS011;64752;48.870;9.082;2024-03-02T13:24:09;0.70;;;0.60;;
76053;SDS011;64752;48.870;9.082;2024-03-02T13:26:35;1.97;;;1.53;;
76053;SDS011;64752;48.870;9.082;2024-03-02T13:29:00;1.00;;;0.90;;
76053;SDS011;64752;48.870;9.082;2024-03-02T13:31:26;0.90;;;0.73;;
76053;SDS011;64752;48.870;9.082;2024-03-02T13:33:51;0.67;;;0.53;;
76053;SDS011;64752;48.870;9.082;2024-03-02T13:36:16;1.07;;;0.80;;
76053;SDS011;64752;48.870;9.082;2024-03-02T13:38:43;0.75;;;0.60;;
76053;SDS011;64752;48.870;9.082;2024-03-02T13:41:08;0.80;;;0.80;;
76053;SDS011;64752;48.870;9.082;2024-03-02T13:43:35;3.00;;;0.90;;
76053;SDS011;64752;48.870;9.082;2024-03-02T13:46:03;1.75;;;0.73;;
76053;SDS011;64752;48.870;9.082;2024-03-02T13:48:28;0.70;;;0.70;;
76053;SDS011;64752;48.870;9.082;2024-03-02T13:50:54;1.00;;;0.80;;
76053;SDS011;64752;48.870;9.082;2024-03-02T13:53:19;1.10;;;0.80;;
76053;SDS011;64752;48.870;9.082;2024-03-02T13:55:45;0.60;;;0.60;;
76053;SDS011;64752;48.870;9.082;2024-03-02T13:58:10;0.97;;;0.70;;
76053;SDS011;64752;48.870;9.082;2024-03-02T14:00:36;0.80;;;0.80;;
76053;SDS011;64752;48.870;9.082;2024-03-02T14:03:03;2.50;;;1.00;;
76053;SDS011;64752;48.870;9.082;2024-03-02T14:05:32;1.05;;;0.80;;
76053;SDS011;64752;48.870;9.082;2024-03-02T14:07:58;0.90;;;0.80;;
76053;SDS011;64752;48.870;9.082;2024-03-02T14:10:25;1.25;;;0.95;;
76053;SDS011;64752;48.870;9.082;2024-03-02T14:12:50;0.77;;;0.70;;
76053;SDS011;64752;48.870;9.082;2024-03-02T14:15:15;1.37;;;1.10;;
76053;SDS011;64752;48.870;9.082;2024-03-02T14:17:41;1.50;;;0.60;;
76053;SDS011;64752;48.870;9.082;2024-03-02T14:20:07;1.30;;;0.95;;
76053;SDS011;64752;48.870;9.082;2024-03-02T14:22:35;1.60;;;1.15;;
76053;SDS011;64752;48.870;9.082;2024-03-02T14:25:02;1.45;;;0.93;;
76053;SDS011;64752;48.870;9.082;2024-03-02T14:27:28;2.33;;;0.90;;
76053;SDS011;64752;48.870;9.082;2024-03-02T14:29:53;1.30;;;1.20;;
76053;SDS011;64752;48.870;9.082;2024-03-02T14:32:19;1.90;;;0.90;;
76053;SDS011;64752;48.870;9.082;2024-03-02T14:34:44;0.77;;;0.77;;
76053;SDS011;64752;48.870;9.082;2024-03-02T14:37:11;0.75;;;0.75;;
76053;SDS011;64752;48.870;9.082;2024-03-02T14:39:37;1.92;;;1.00;;
76053;SDS011;64752;48.870;9.082;2024-03-02T14:42:03;2.13;;;1.17;;
76053;SDS011;64752;48.870;9.082;2024-03-02T14:44:28;3.03;;;1.00;;
76053;SDS011;64752;48.870;9.082;2024-03-02T14:46:53;1.50;;;0.93;;
76053;SDS011;64752;48.870;9.082;2024-03-02T14:49:19;0.80;;;0.80;;
76053;SDS011;64752;48.870;9.082;2024-03-02T14:51:44;1.10;;;1.00;;
76053;SDS011;64752;48.870;9.082;2024-03-02T14:54:10;1.37;;;1.07;;
76053;SDS011;64752;48.870;9.082;2024-03-02T14:56:35;2.60;;;1.10;;
76053;SDS011;64752;48.870;9.082;2024-03-02T14:59:00;1.40;;;1.00;;
76053;SDS011;64752;48.870;9.082;2024-03-02T15:01:26;1.83;;;0.97;;